EW3649 Weather Reports


time (UTC)temp
C
wind
direction
speed
KPH
gust
KPH
rain 1hr
cm
rain 24hr
cm
rain mn
cm
humidity
%
barometer
mb
20260904042506 12 0 0.0 0.0 0.18 1.32 1.30 93 1010.7
20260904042005 12 0 0.0 0.0 0.18 1.30 1.27 93 1010.6
20260904041505 12 0 0.0 0.0 0.20 1.30 1.27 92 1010.6
20260904041005 12 0 0.0 0.0 0.23 1.30 1.27 93 1010.6
20260904040504 12 0 0.0 0.0 0.23 1.27 1.24 93 1010.5
20260904040005 12 0 0.0 0.0 0.23 1.24 1.22 92 1010.5
20260904035505 12 0 0.0 0.0 0.25 1.24 1.22 92 1010.5
20260904035005 12 0 0.0 0.0 0.25 1.22 1.19 92 1010.4
20260904034505 12 0 0.0 0.0 0.25 1.19 1.17 92 1010.3
20260904034006 12 0 0.0 0.0 0.28 1.19 1.17 92 1010.3
20260904033504 12 0 0.0 0.0 0.28 1.17 1.14 92 1010.3
20260904033005 12 0 0.0 0.0 0.28 1.14 1.12 92 1010.2
20260904032504 12 0 0.0 0.0 0.28 1.12 1.09 92 1010.1
20260904032005 12 0 0.0 0.0 0.30 1.09 1.07 92 1010.1
20260904031504 12 0 0.0 0.0 0.33 1.09 1.07 92 1010.1
20260904031005 12 0 0.0 0.0 0.33 1.07 1.04 92 1010.0
20260904030005 12 0 0.0 0.0 0.33 1.02 0.99 92 1009.9
20260904025505 12 0 0.0 0.0 0.36 0.99 0.97 92 1009.9
20260904025006 12 0 0.0 0.0 0.36 0.97 0.94 92 1009.9
20260904024504 12 0 0.0 0.0 0.36 0.94 0.91 92 1009.9
20260904024005 12 0 0.0 0.0 0.36 0.91 0.89 92 1010.0
20260904023505 12 0 0.0 0.0 0.36 0.89 0.86 92 1010.0
20260904023006 12 0 0.0 0.0 0.38 0.86 0.84 92 1010.1
20260904022006 12 0 0.0 0.0 0.36 0.79 0.76 91 1010.0
20260904021504 12 0 0.0 0.0 0.38 0.76 0.74 91 1010.0
20260904021006 12 0 0.0 0.0 0.38 0.74 0.71 91 1009.9
20260904020005 12 0 0.0 0.0 0.38 0.69 0.66 91 1009.9
20260904015504 12 0 0.0 0.0 0.36 0.64 0.61 91 1009.9
20260904015005 12 0 0.0 0.0 0.36 0.61 0.58 90 1009.9
20260904014505 12 0 0.0 0.0 0.33 0.58 0.56 90 1010.0
20260904014007 12 0 0.0 0.0 0.33 0.56 0.53 90 1009.9
20260904013505 12 0 0.0 0.0 0.28 0.51 0.48 89 1010.0
20260904013005 13 0 0.0 0.0 0.25 0.48 0.46 89 1010.0
20260904012505 13 255 0.0 1.6 0.23 0.46 0.43 89 1010.1
20260904012005 13 255 0.0 1.6 0.18 0.41 0.38 89 1010.1
20260904011505 13 255 0.0 1.6 0.15 0.38 0.36 88 1010.0
20260904011005 13 255 0.0 1.6 0.13 0.36 0.33 87 1010.0
20260904010505 13 255 0.0 1.6 0.10 0.33 0.30 86 1010.0
20260904010006 13 255 0.0 11.3 0.08 0.30 0.28 85 1010.1
20260904005005 15 255 1.6 12.9 0.03 0.25 0.23 79 1009.9
20260904004505 16 256 1.6 16.1 0.00 0.25 0.20 76 1009.9
20260904004005 16 257 0.0 16.1 0.00 0.28 0.20 72 1009.8
20260904003005 17 0 0.0 0.0 0.00 0.30 0.20 72 1009.6
20260904002504 17 0 0.0 0.0 0.00 0.30 0.20 71 1009.3
20260904002005 17 0 0.0 0.0 0.00 0.30 0.20 72 1009.0
20260904001504 17 0 0.0 0.0 0.00 0.30 0.20 71 1009.1
20260904001005 17 257 0.0 4.8 0.00 0.30 0.20 71 1009.2
20260904000005 17 0 0.0 0.0 0.00 0.30 0.20 70 1009.2
20260903235505 17 257 0.0 1.6 0.00 0.30 0.20 69 1009.1
20260903235004 18 257 0.0 1.6 0.00 0.30 0.20 68 1009.1
20260903234505 18 0 0.0 0.0 0.00 0.30 0.20 67 1009.1
20260903234005 18 257 0.0 1.6 0.00 0.30 0.20 67 1009.1
20260903233504 18 257 0.0 1.6 0.00 0.30 0.20 68 1009.2
20260903233005 18 257 0.0 3.2 0.00 0.30 0.20 67 1009.2
20260903232505 18 257 0.0 3.2 0.00 0.30 0.20 65 1009.2
20260903232005 19 0 0.0 0.0 0.00 0.33 0.20 67 1009.3
20260903231005 18 257 0.0 3.2 0.00 0.33 0.20 68 1009.2
20260903230504 18 256 0.0 1.6 0.00 0.33 0.20 68 1009.2
20260903230005 18 256 0.0 1.6 0.00 0.36 0.20 69 1009.2
20260903225505 18 0 0.0 0.0 0.00 0.38 0.20 70 1009.3
20260903225005 18 256 0.0 3.2 0.00 0.41 0.20 68 1009.3
20260903224505 18 256 0.0 4.8 0.00 0.41 0.20 68 1009.3
20260903224005 18 256 0.0 4.8 0.00 0.43 0.20 68 1009.3
20260903223005 18 256 0.0 3.2 0.00 0.48 0.20 71 1009.4
20260903222504 18 256 0.0 11.3 0.00 0.51 0.20 72 1009.4
20260903222005 17 256 0.0 11.3 0.00 0.51 0.20 75 1009.4
20260903221504 17 0 0.0 0.0 0.03 0.53 0.20 76 1009.5
20260903220504 17 0 0.0 0.0 0.03 0.56 0.20 77 1009.4
20260903220006 17 0 0.0 0.0 0.03 0.58 0.20 77 1009.5
20260903215006 16 0 0.0 0.0 0.03 0.61 0.20 74 1009.5
20260903214004 16 0 0.0 0.0 0.03 0.66 0.20 76 1009.5
20260903213504 16 0 0.0 0.0 0.03 0.66 0.20 77 1009.6
20260903213005 16 0 0.0 0.0 0.03 0.66 0.20 76 1009.6
20260903212505 16 0 0.0 0.0 0.03 0.69 0.20 78 1009.6
20260903212004 17 0 0.0 0.0 0.03 0.69 0.20 75 1009.6
20260903211005 17 257 0.0 3.2 0.00 0.69 0.18 70 1009.5
20260903210505 17 256 0.0 14.5 0.00 0.71 0.18 69 1009.5
20260903205504 17 256 0.0 1.6 0.00 0.71 0.18 69 1009.4
20260903205004 17 256 0.0 1.6 0.00 0.71 0.18 69 1009.4
20260903204505 17 257 0.0 3.2 0.00 0.74 0.18 67 1009.3
20260903204005 18 256 0.0 3.2 0.00 0.74 0.18 69 1009.4
20260903203504 18 256 0.0 3.2 0.00 0.74 0.18 65 1009.3
20260903203005 18 257 0.0 8.0 0.00 0.74 0.18 66 1009.2
20260903201504 18 256 0.0 12.9 0.00 0.74 0.18 66 1009.2
20260903201005 17 256 0.0 1.6 0.00 0.74 0.18 67 1009.3
20260903200505 17 256 0.0 4.8 0.00 0.74 0.18 69 1009.3
20260903200004 17 256 0.0 4.8 0.00 0.74 0.18 69 1009.3
20260903195505 17 0 0.0 0.0 0.00 0.74 0.18 73 1009.4
20260903195005 16 257 0.0 8.0 0.00 0.74 0.18 72 1009.4
20260903194505 16 257 0.0 8.0 0.00 0.74 0.18 70 1009.4
20260903193504 16 257 0.0 8.0 0.00 0.81 0.18 72 1009.4
20260903193005 16 257 0.0 8.0 0.00 0.84 0.18 73 1009.4
20260903192007 16 257 0.0 6.4 0.00 0.84 0.18 75 1009.3
20260903190504 15 257 0.0 11.3 0.00 0.84 0.18 75 1009.4
20260903190005 15 257 0.0 3.2 0.00 0.84 0.18 76 1009.4
20260903185505 15 0 0.0 0.0 0.00 0.84 0.18 80 1009.4
20260903184505 15 0 0.0 0.0 0.00 0.84 0.18 79 1009.3
20260903184004 15 0 0.0 0.0 0.00 0.84 0.18 81 1009.4
20260903183504 15 0 0.0 0.0 0.00 0.84 0.18 84 1009.4
20260903183004 15 0 0.0 0.0 0.00 0.84 0.18 86 1009.4
20260903182004 14 0 0.0 0.0 0.00 0.84 0.18 84 1009.3
20260903181504 14 0 0.0 0.0 0.00 0.84 0.18 84 1009.3
20260903181005 14 0 0.0 0.0 0.00 0.84 0.18 85 1009.3
20260903180005 14 0 0.0 0.0 0.00 0.84 0.18 87 1009.3
20260903175505 13 0 0.0 0.0 0.00 0.84 0.18 88 1009.3
20260903175004 13 0 0.0 0.0 0.00 0.84 0.18 89 1009.2
20260903174504 13 0 0.0 0.0 0.00 0.84 0.18 90 1009.2
20260903174004 13 0 0.0 0.0 0.00 0.84 0.18 91 1009.2
20260903173504 13 0 0.0 0.0 0.00 0.84 0.18 90 1009.2
20260903173005 13 0 0.0 0.0 0.00 0.84 0.18 91 1009.2
20260903172504 13 0 0.0 0.0 0.00 0.84 0.18 91 1009.2
20260903172004 13 0 0.0 0.0 0.00 0.84 0.18 91 1009.1
20260903171005 13 257 0.0 6.4 0.00 0.84 0.18 92 1009.1
20260903170504 13 0 0.0 0.0 0.00 0.84 0.18 93 1009.0
20260903170005 13 0 0.0 0.0 0.00 0.84 0.18 93 1009.1
20260903165505 13 0 0.0 0.0 0.00 0.84 0.18 94 1009.1
20260903165006 13 0 0.0 0.0 0.00 0.84 0.18 93 1009.1
20260903164006 12 0 0.0 0.0 0.00 0.84 0.18 94 1009.0
20260903163504 12 0 0.0 0.0 0.00 0.84 0.18 93 1009.0
20260903163005 12 0 0.0 0.0 0.00 0.84 0.18 94 1009.0
20260903162005 12 0 0.0 0.0 0.00 0.84 0.18 94 1009.0
20260903161504 12 0 0.0 0.0 0.00 0.84 0.18 94 1009.0
20260903161004 12 0 0.0 0.0 0.00 0.84 0.18 94 1009.1
20260903160504 12 0 0.0 0.0 0.00 0.84 0.18 94 1009.1
20260903155504 12 0 0.0 0.0 0.00 0.84 0.18 94 1009.1
20260903154504 11 0 0.0 0.0 0.00 0.84 0.18 94 1008.9
20260903154005 11 257 0.0 1.6 0.00 0.84 0.18 94 1008.9
20260903153504 11 257 0.0 1.6 0.00 0.84 0.18 94 1008.9
20260903153005 11 257 0.0 1.6 0.00 0.84 0.18 94 1008.9
20260903152504 11 257 0.0 1.6 0.00 0.84 0.18 94 1008.9
20260903152004 11 0 0.0 0.0 0.00 0.84 0.18 94 1008.9
20260903151505 11 0 0.0 0.0 0.03 0.84 0.18 94 1008.9
20260903151004 11 257 0.0 1.6 0.03 0.84 0.18 94 1008.9
20260903150504 11 257 0.0 1.6 0.03 0.84 0.18 94 1008.9
20260903150005 11 257 0.0 1.6 0.03 0.84 0.18 94 1008.8
20260903145006 11 0 0.0 0.0 0.03 0.84 0.18 94 1008.8
20260903144504 11 0 0.0 0.0 0.05 0.84 0.18 94 1008.8
20260903144005 11 0 0.0 0.0 0.05 0.84 0.18 93 1008.8
20260903143505 11 0 0.0 0.0 0.05 0.84 0.18 93 1008.8
20260903143005 11 0 0.0 0.0 0.05 0.84 0.18 94 1008.7
20260903142506 11 0 0.0 0.0 0.05 0.84 0.18 94 1008.7
20260903141504 11 0 0.0 0.0 0.05 0.81 0.15 94 1008.8
20260903141005 11 0 0.0 0.0 0.05 0.81 0.15 94 1008.7
20260903140504 11 0 0.0 0.0 0.08 0.81 0.15 94 1008.7
20260903135504 11 0 0.0 0.0 0.10 0.81 0.15 93 1008.7
20260903135004 11 0 0.0 0.0 0.08 0.79 0.15 93 1008.7
20260903134504 11 0 0.0 0.0 0.08 0.79 0.13 93 1008.6
20260903134005 11 0 0.0 0.0 0.08 0.79 0.13 93 1008.6
20260903133504 11 0 0.0 0.0 0.08 0.79 0.13 93 1008.5
20260903133004 11 0 0.0 0.0 0.10 0.79 0.13 93 1008.5
20260903132005 11 0 0.0 0.0 0.08 0.76 0.10 93 1008.4
20260903130504 11 0 0.0 0.0 0.05 0.74 0.08 93 1008.3
20260903130006 11 0 0.0 0.0 0.05 0.74 0.08 93 1008.4
20260903125504 11 0 0.0 0.0 0.03 0.71 0.05 93 1008.4
20260903125005 11 0 0.0 0.0 0.03 0.71 0.05 93 1008.4
20260903124504 11 0 0.0 0.0 0.03 0.71 0.05 93 1008.4
20260903124005 11 0 0.0 0.0 0.03 0.71 0.05 93 1008.4
20260903123505 11 0 0.0 0.0 0.03 0.71 0.05 93 1008.4
20260903123005 11 0 0.0 0.0 0.00 0.69 0.03 93 1008.5
20260903122504 11 0 0.0 0.0 0.00 0.69 0.03 93 1008.3
20260903122005 11 0 0.0 0.0 0.00 0.69 0.03 93 1008.2
20260903121503 11 0 0.0 0.0 0.00 0.69 0.03 93 1008.0
20260903121005 11 0 0.0 0.0 0.00 0.69 0.03 93 1008.1
20260903120504 10 0 0.0 0.0 0.00 0.69 0.03 93 1008.0
20260903115505 10 0 0.0 0.0 0.00 0.69 0.03 93 1007.8
20260903114504 10 0 0.0 0.0 0.00 0.69 0.03 93 1007.7
20260903114005 10 0 0.0 0.0 0.00 0.69 0.03 93 1007.7
20260903113504 10 0 0.0 0.0 0.03 0.69 0.03 93 1007.7
20260903113004 10 0 0.0 0.0 0.03 0.69 0.03 93 1007.7
20260903112504 10 0 0.0 0.0 0.03 0.69 0.03 93 1007.7
20260903112004 11 0 0.0 0.0 0.03 0.69 0.03 93 1007.7
20260903111504 11 0 0.0 0.0 0.03 0.69 0.03 93 1007.7
20260903111005 11 0 0.0 0.0 0.03 0.69 0.03 93 1007.7
20260903110504 11 0 0.0 0.0 0.03 0.69 0.03 93 1007.9
20260903110005 11 0 0.0 0.0 0.03 0.69 0.03 93 1007.8
20260903105504 11 0 0.0 0.0 0.03 0.69 0.03 93 1007.7
20260903105004 11 0 0.0 0.0 0.03 0.69 0.03 93 1007.8
20260903104504 11 0 0.0 0.0 0.03 0.69 0.03 93 1007.7
20260903104005 11 0 0.0 0.0 0.03 0.69 0.03 93 1007.7
20260903103504 11 0 0.0 0.0 0.00 0.66 0.00 93 1007.9
20260903103005 10 0 0.0 0.0 0.00 0.66 0.00 93 1007.7
20260903102504 10 0 0.0 0.0 0.00 0.66 0.00 93 1007.7
20260903102004 10 0 0.0 0.0 0.00 0.66 0.00 93 1007.7
20260903101504 10 0 0.0 0.0 0.00 0.66 0.00 93 1007.7
20260903101005 11 0 0.0 0.0 0.00 0.66 0.00 93 1007.8
20260903100504 11 0 0.0 0.0 0.00 0.66 0.00 93 1007.7
20260903100004 11 0 0.0 0.0 0.00 0.66 0.00 93 1007.7
20260903095503 11 0 0.0 0.0 0.00 0.66 0.00 93 1007.6
20260903095004 11 0 0.0 0.0 0.00 0.66 0.00 93 1007.7
20260903094004 11 0 0.0 0.0 0.00 0.66 0.00 93 1007.7
20260903093504 11 0 0.0 0.0 0.00 0.66 0.00 93 1007.7
20260903092504 11 0 0.0 0.0 0.00 0.66 0.00 93 1007.7
20260903092003 11 0 0.0 0.0 0.00 0.66 0.00 93 1007.7
20260903091004 11 0 0.0 0.0 0.00 0.66 0.00 93 1007.7
20260903090503 11 0 0.0 0.0 0.00 0.66 0.00 93 1007.6
20260903090004 11 0 0.0 0.0 0.00 0.66 0.00 93 1007.6
20260903085504 11 0 0.0 0.0 0.00 0.66 0.00 93 1007.6
20260903085004 11 0 0.0 0.0 0.00 0.66 0.00 93 1007.6
20260903084503 11 0 0.0 0.0 0.00 0.66 0.00 93 1007.6
20260903084004 11 0 0.0 0.0 0.00 0.69 0.00 93 1007.6
20260903083504 11 0 0.0 0.0 0.00 0.69 0.00 93 1007.6
20260903083004 11 0 0.0 0.0 0.00 0.69 0.00 93 1007.6
20260903082503 11 0 0.0 0.0 0.00 0.69 0.00 93 1007.6
20260903082004 11 0 0.0 0.0 0.00 0.69 0.00 93 1007.6
20260903081503 11 0 0.0 0.0 0.00 0.69 0.00 93 1007.6
20260903081004 11 0 0.0 0.0 0.00 0.69 0.00 93 1007.6
20260903080503 11 0 0.0 0.0 0.00 0.69 0.00 93 1007.5
20260903075504 11 0 0.0 0.0 0.00 0.69 0.00 92 1007.4
20260903075004 11 0 0.0 0.0 0.00 0.69 0.00 92 1007.4
20260903074005 11 0 0.0 0.0 0.00 0.69 0.00 92 1007.4
20260903073503 11 0 0.0 0.0 0.00 0.69 0.00 92 1007.4
20260903073004 11 0 0.0 0.0 0.00 0.69 0.00 92 1007.4
20260903072503 11 0 0.0 0.0 0.00 0.69 0.00 92 1007.4
20260903072004 11 0 0.0 0.0 0.00 0.69 0.00 92 1007.4
20260903071503 11 0 0.0 0.0 0.00 0.69 0.00 92 1007.4
20260903070007 11 0 0.0 0.0 0.00 0.69 0.00 92 1007.4
20260903065504 11 0 0.0 0.0 0.00 0.69 0.69 93 1007.4
20260903065005 11 0 0.0 0.0 0.00 0.69 0.69 93 1007.4
20260903064503 11 0 0.0 0.0 0.00 0.69 0.69 93 1007.4
20260903063505 11 0 0.0 0.0 0.00 0.69 0.69 93 1007.3
20260903062505 11 0 0.0 0.0 0.00 0.69 0.69 93 1007.3
20260903062006 11 0 0.0 0.0 0.00 0.69 0.69 93 1007.3
20260903061505 11 0 0.0 0.0 0.03 0.69 0.69 93 1007.4
20260903060505 11 0 0.0 0.0 0.03 0.69 0.69 93 1007.4
20260903060006 11 0 0.0 0.0 0.03 0.69 0.69 92 1007.4
20260903055505 11 0 0.0 0.0 0.03 0.69 0.69 92 1007.4
20260903054006 11 0 0.0 0.0 0.03 0.69 0.69 92 1007.5
20260903053505 11 0 0.0 0.0 0.03 0.69 0.69 93 1007.5
20260903053006 11 0 0.0 0.0 0.03 0.69 0.69 93 1007.5
20260903052505 11 0 0.0 0.0 0.03 0.69 0.69 93 1007.3
20260903052005 11 0 0.0 0.0 0.00 0.66 0.66 92 1007.4
20260903051505 11 0 0.0 0.0 0.00 0.66 0.66 92 1007.4
20260903050505 11 0 0.0 0.0 0.00 0.66 0.66 92 1007.3
20260903050005 11 0 0.0 0.0 0.00 0.66 0.66 92 1007.3
20260903044505 12 0 0.0 0.0 0.00 0.66 0.66 92 1007.3
20260903044006 12 0 0.0 0.0 0.00 0.66 0.66 92 1007.2
20260903043505 12 0 0.0 0.0 0.00 0.66 0.66 92 1007.2
20260903043005 12 0 0.0 0.0 0.00 0.66 0.66 92 1007.3